createdAt,value
2023-03-08T18:09:32.846Z,8.65
2023-03-08T18:12:01.543Z,8.48
2023-03-08T18:14:39.609Z,8.98
2023-03-08T18:17:08.875Z,9.52
2023-03-08T18:19:37.648Z,10.50
2023-03-08T18:22:06.082Z,9.75
2023-03-08T18:24:35.641Z,10.35
2023-03-08T18:27:06.028Z,13.07
2023-03-08T18:29:36.079Z,20.50
2023-03-08T18:32:05.009Z,14.43
2023-03-08T18:34:34.035Z,11.45
2023-03-08T18:37:02.687Z,10.30
2023-03-08T18:39:31.086Z,9.48
2023-03-08T18:42:01.957Z,8.90
2023-03-08T18:44:30.621Z,9.75
2023-03-08T18:46:59.206Z,8.88
2023-03-08T18:49:27.663Z,10.32
2023-03-08T18:51:57.473Z,10.32
2023-03-08T18:54:25.923Z,15.00
2023-03-08T18:56:55.531Z,17.63
2023-03-08T18:59:23.909Z,12.00
2023-03-08T19:01:55.648Z,10.10
2023-03-08T19:04:24.217Z,10.73
2023-03-08T19:06:52.542Z,10.73
2023-03-08T19:09:22.520Z,11.27
2023-03-08T19:11:51.266Z,11.07
2023-03-08T19:14:19.626Z,10.88
2023-03-08T19:16:48.366Z,11.75
2023-03-08T19:19:17.131Z,10.75
2023-03-08T19:21:47.117Z,11.63
2023-03-08T19:24:17.871Z,11.65
2023-03-08T19:26:52.033Z,12.10
2023-03-08T19:29:26.393Z,11.45
2023-03-08T19:31:57.906Z,10.73
2023-03-08T19:34:29.761Z,11.23
2023-03-08T19:36:58.505Z,10.90
2023-03-08T19:39:30.582Z,13.25
2023-03-08T19:42:02.264Z,17.88
2023-03-08T19:44:32.091Z,18.92
2023-03-08T19:47:00.945Z,19.85
2023-03-08T19:49:30.915Z,17.13
2023-03-08T19:52:01.873Z,15.45
2023-03-08T19:54:31.873Z,13.60
2023-03-08T19:57:00.525Z,16.27
2023-03-08T19:59:29.177Z,16.30
2023-03-08T20:01:57.946Z,19.20
2023-03-08T20:04:26.181Z,19.25
2023-03-08T20:06:54.620Z,14.57
2023-03-08T20:09:23.152Z,13.70
2023-03-08T20:11:57.695Z,13.70
2023-03-08T20:14:27.924Z,13.35
2023-03-08T20:16:56.698Z,13.68
2023-03-08T20:19:25.626Z,13.75
2023-03-08T20:21:53.664Z,13.40
2023-03-08T20:24:23.974Z,13.75
2023-03-08T20:26:52.145Z,16.95
2023-03-08T20:29:20.143Z,14.65
2023-03-08T20:31:48.800Z,14.15
2023-03-08T20:34:17.261Z,14.50
2023-03-08T20:36:45.505Z,15.13
2023-03-08T20:39:13.757Z,12.90
2023-03-08T20:41:42.548Z,13.63
2023-03-08T20:44:12.930Z,12.98
2023-03-08T20:46:41.201Z,14.90
2023-03-08T20:49:11.869Z,14.15
2023-03-08T20:51:40.364Z,13.48
2023-03-08T20:54:09.956Z,13.60
2023-03-08T20:56:38.640Z,14.68
2023-03-08T20:59:07.294Z,13.60
2023-03-08T21:01:36.122Z,13.57
2023-03-08T21:04:06.620Z,14.75
2023-03-08T21:06:35.354Z,13.07
2023-03-08T21:09:04.344Z,13.88
2023-03-08T21:11:33.584Z,13.38
2023-03-08T21:14:01.817Z,14.38
2023-03-08T21:16:31.147Z,13.23
2023-03-08T21:19:01.849Z,13.65
2023-03-08T21:21:36.827Z,14.23
2023-03-08T21:24:12.135Z,12.95
2023-03-08T21:26:40.918Z,13.85
2023-03-08T21:29:14.928Z,14.00
2023-03-08T21:31:49.513Z,14.50
2023-03-08T21:34:18.892Z,14.68
2023-03-08T21:36:47.232Z,14.40
2023-03-08T21:39:15.739Z,14.52
2023-03-08T21:41:46.050Z,13.60
2023-03-08T21:44:17.539Z,15.18
2023-03-08T21:46:47.351Z,14.52
2023-03-08T21:49:24.292Z,14.85
2023-03-08T21:54:22.481Z,14.52
2023-03-08T21:56:51.236Z,14.57
2023-03-08T21:59:20.048Z,15.35
2023-03-08T22:01:49.570Z,14.93
2023-03-08T22:04:18.615Z,14.43
2023-03-08T22:06:47.370Z,14.50
2023-03-08T22:09:15.873Z,16.25
2023-03-08T22:11:44.542Z,15.18
2023-03-08T22:14:13.241Z,14.95
2023-03-08T22:16:41.679Z,14.68
2023-03-08T22:19:10.891Z,15.60
2023-03-08T22:21:39.729Z,14.52
2023-03-08T22:24:08.674Z,14.95
2023-03-08T22:26:37.142Z,14.82
2023-03-08T22:29:05.872Z,15.15
2023-03-08T22:31:34.599Z,15.48
2023-03-08T22:34:02.838Z,16.02
2023-03-08T22:36:31.248Z,15.30
2023-03-08T22:39:00.019Z,15.38
2023-03-08T22:41:29.345Z,14.85
2023-03-08T22:43:57.817Z,16.48
2023-03-08T22:46:28.519Z,15.93
2023-03-08T22:48:58.801Z,16.15
2023-03-08T22:51:29.208Z,15.95
2023-03-08T22:54:00.146Z,16.05
2023-03-08T22:56:34.062Z,15.32
2023-03-08T22:59:03.355Z,14.73
2023-03-08T23:01:33.808Z,15.20
2023-03-08T23:04:03.596Z,14.35
2023-03-08T23:06:33.624Z,15.30
2023-03-08T23:09:07.825Z,16.33
2023-03-08T23:11:37.646Z,14.57
2023-03-08T23:14:07.447Z,16.00
2023-03-08T23:16:36.921Z,16.08
2023-03-08T23:19:05.122Z,17.35
2023-03-08T23:21:33.873Z,18.13
2023-03-08T23:24:02.546Z,17.52
2023-03-08T23:26:33.410Z,16.40
2023-03-08T23:29:05.908Z,16.00
2023-03-08T23:31:36.989Z,15.68
2023-03-08T23:34:06.596Z,16.75
2023-03-08T23:36:35.051Z,16.00
2023-03-08T23:39:04.566Z,17.17
2023-03-08T23:41:33.676Z,17.42
2023-03-08T23:44:02.652Z,17.48
2023-03-08T23:46:31.424Z,16.73
2023-03-08T23:49:01.579Z,16.77
2023-03-08T23:51:32.591Z,16.83
2023-03-08T23:54:02.754Z,17.30
2023-03-08T23:56:38.352Z,15.85
2023-03-08T23:59:19.230Z,17.08
